sensor_id;sensor_type;location;lat;lon;timestamp;P1;durP1;ratioP1;P2;durP2;ratioP2
23175;SDS011;19910;42.652;23.332;2022-10-16T00:00:44;6.70;;;3.97;;
23175;SDS011;19910;42.652;23.332;2022-10-16T00:03:11;9.70;;;5.57;;
23175;SDS011;19910;42.652;23.332;2022-10-16T00:05:38;12.85;;;4.28;;
23175;SDS011;19910;42.652;23.332;2022-10-16T00:08:06;6.90;;;3.97;;
23175;SDS011;19910;42.652;23.332;2022-10-16T00:10:33;11.32;;;7.25;;
23175;SDS011;19910;42.652;23.332;2022-10-16T00:13:01;13.32;;;7.30;;
23175;SDS011;19910;42.652;23.332;2022-10-16T00:15:29;16.63;;;8.95;;
23175;SDS011;19910;42.652;23.332;2022-10-16T00:17:56;11.63;;;7.57;;
23175;SDS011;19910;42.652;23.332;2022-10-16T00:20:22;9.88;;;6.53;;
23175;SDS011;19910;42.652;23.332;2022-10-16T00:22:49;10.50;;;5.95;;
23175;SDS011;19910;42.652;23.332;2022-10-16T00:25:16;11.73;;;6.75;;
23175;SDS011;19910;42.652;23.332;2022-10-16T00:27:43;11.35;;;7.07;;
23175;SDS011;19910;42.652;23.332;2022-10-16T00:30:11;10.15;;;6.97;;
23175;SDS011;19910;42.652;23.332;2022-10-16T00:32:38;6.90;;;3.83;;
23175;SDS011;19910;42.652;23.332;2022-10-16T00:35:05;8.90;;;3.35;;
23175;SDS011;19910;42.652;23.332;2022-10-16T00:37:32;8.50;;;3.85;;
23175;SDS011;19910;42.652;23.332;2022-10-16T00:39:58;7.93;;;3.20;;
23175;SDS011;19910;42.652;23.332;2022-10-16T00:42:25;5.63;;;3.33;;
23175;SDS011;19910;42.652;23.332;2022-10-16T00:44:52;12.55;;;3.42;;
23175;SDS011;19910;42.652;23.332;2022-10-16T00:47:24;6.60;;;3.78;;
23175;SDS011;19910;42.652;23.332;2022-10-16T00:49:55;7.13;;;3.72;;
23175;SDS011;19910;42.652;23.332;2022-10-16T00:52:27;6.80;;;3.33;;
23175;SDS011;19910;42.652;23.332;2022-10-16T00:54:54;6.80;;;4.28;;
23175;SDS011;19910;42.652;23.332;2022-10-16T00:57:22;6.07;;;3.28;;
23175;SDS011;19910;42.652;23.332;2022-10-16T00:59:49;7.15;;;3.80;;
23175;SDS011;19910;42.652;23.332;2022-10-16T01:02:16;10.00;;;5.03;;
23175;SDS011;19910;42.652;23.332;2022-10-16T01:04:45;7.45;;;3.70;;
23175;SDS011;19910;42.652;23.332;2022-10-16T01:07:18;8.00;;;4.22;;
23175;SDS011;19910;42.652;23.332;2022-10-16T01:10:06;12.57;;;5.53;;
23175;SDS011;19910;42.652;23.332;2022-10-16T01:12:40;11.25;;;7.47;;
23175;SDS011;19910;42.652;23.332;2022-10-16T01:15:13;11.30;;;7.20;;
23175;SDS011;19910;42.652;23.332;2022-10-16T01:17:46;12.52;;;6.55;;
23175;SDS011;19910;42.652;23.332;2022-10-16T01:20:24;12.05;;;6.93;;
23175;SDS011;19910;42.652;23.332;2022-10-16T01:22:57;5.55;;;3.50;;
23175;SDS011;19910;42.652;23.332;2022-10-16T01:25:46;5.43;;;2.78;;
23175;SDS011;19910;42.652;23.332;2022-10-16T01:28:24;5.32;;;2.80;;
23175;SDS011;19910;42.652;23.332;2022-10-16T01:30:57;5.93;;;2.97;;
23175;SDS011;19910;42.652;23.332;2022-10-16T01:33:26;7.05;;;3.65;;
23175;SDS011;19910;42.652;23.332;2022-10-16T01:35:58;7.72;;;3.67;;
23175;SDS011;19910;42.652;23.332;2022-10-16T01:38:29;9.52;;;4.55;;
23175;SDS011;19910;42.652;23.332;2022-10-16T01:41:01;5.38;;;2.63;;
23175;SDS011;19910;42.652;23.332;2022-10-16T01:43:35;8.70;;;3.65;;
23175;SDS011;19910;42.652;23.332;2022-10-16T01:46:06;5.80;;;2.53;;
23175;SDS011;19910;42.652;23.332;2022-10-16T01:48:35;5.50;;;2.88;;
23175;SDS011;19910;42.652;23.332;2022-10-16T01:51:04;3.75;;;2.53;;
23175;SDS011;19910;42.652;23.332;2022-10-16T01:53:33;3.95;;;2.75;;
23175;SDS011;19910;42.652;23.332;2022-10-16T01:56:00;7.10;;;2.67;;
23175;SDS011;19910;42.652;23.332;2022-10-16T01:58:31;5.60;;;2.88;;
23175;SDS011;19910;42.652;23.332;2022-10-16T02:01:03;8.25;;;3.08;;
23175;SDS011;19910;42.652;23.332;2022-10-16T02:03:33;3.42;;;2.47;;
23175;SDS011;19910;42.652;23.332;2022-10-16T02:06:02;4.68;;;2.55;;
23175;SDS011;19910;42.652;23.332;2022-10-16T02:08:29;6.43;;;3.05;;
23175;SDS011;19910;42.652;23.332;2022-10-16T02:10:57;6.50;;;3.40;;
23175;SDS011;19910;42.652;23.332;2022-10-16T02:13:27;5.90;;;2.75;;
23175;SDS011;19910;42.652;23.332;2022-10-16T02:15:59;3.70;;;2.33;;
23175;SDS011;19910;42.652;23.332;2022-10-16T02:18:26;6.70;;;2.45;;
23175;SDS011;19910;42.652;23.332;2022-10-16T02:20:55;3.38;;;2.60;;
23175;SDS011;19910;42.652;23.332;2022-10-16T02:23:29;4.43;;;2.88;;
23175;SDS011;19910;42.652;23.332;2022-10-16T02:26:02;3.53;;;2.30;;
23175;SDS011;19910;42.652;23.332;2022-10-16T02:28:34;3.88;;;3.03;;
23175;SDS011;19910;42.652;23.332;2022-10-16T02:31:08;3.70;;;2.58;;
23175;SDS011;19910;42.652;23.332;2022-10-16T02:33:37;5.07;;;3.05;;
23175;SDS011;19910;42.652;23.332;2022-10-16T02:36:07;5.32;;;3.67;;
23175;SDS011;19910;42.652;23.332;2022-10-16T02:38:34;5.15;;;3.13;;
23175;SDS011;19910;42.652;23.332;2022-10-16T02:41:02;4.95;;;3.45;;
23175;SDS011;19910;42.652;23.332;2022-10-16T02:43:30;7.38;;;3.38;;
23175;SDS011;19910;42.652;23.332;2022-10-16T02:45:58;4.95;;;2.95;;
23175;SDS011;19910;42.652;23.332;2022-10-16T02:48:26;5.53;;;3.17;;
23175;SDS011;19910;42.652;23.332;2022-10-16T02:50:53;5.13;;;2.85;;
23175;SDS011;19910;42.652;23.332;2022-10-16T02:53:19;5.22;;;3.67;;
23175;SDS011;19910;42.652;23.332;2022-10-16T02:55:46;3.72;;;2.55;;
23175;SDS011;19910;42.652;23.332;2022-10-16T02:58:13;8.00;;;3.78;;
23175;SDS011;19910;42.652;23.332;2022-10-16T03:00:39;5.28;;;3.30;;
23175;SDS011;19910;42.652;23.332;2022-10-16T03:03:07;6.13;;;3.47;;
23175;SDS011;19910;42.652;23.332;2022-10-16T03:05:35;4.35;;;3.05;;
23175;SDS011;19910;42.652;23.332;2022-10-16T03:08:01;8.75;;;3.53;;
23175;SDS011;19910;42.652;23.332;2022-10-16T03:10:28;9.18;;;6.22;;
23175;SDS011;19910;42.652;23.332;2022-10-16T03:12:55;6.45;;;3.90;;
23175;SDS011;19910;42.652;23.332;2022-10-16T03:15:21;5.65;;;2.63;;
23175;SDS011;19910;42.652;23.332;2022-10-16T03:17:48;4.10;;;3.17;;
23175;SDS011;19910;42.652;23.332;2022-10-16T03:20:15;5.95;;;3.53;;
23175;SDS011;19910;42.652;23.332;2022-10-16T03:22:43;7.15;;;3.42;;
23175;SDS011;19910;42.652;23.332;2022-10-16T03:25:09;6.25;;;3.38;;
23175;SDS011;19910;42.652;23.332;2022-10-16T03:27:36;6.28;;;3.05;;
23175;SDS011;19910;42.652;23.332;2022-10-16T03:30:03;4.93;;;2.70;;
23175;SDS011;19910;42.652;23.332;2022-10-16T03:32:30;6.30;;;2.88;;
23175;SDS011;19910;42.652;23.332;2022-10-16T03:34:57;5.72;;;2.95;;
23175;SDS011;19910;42.652;23.332;2022-10-16T03:37:23;8.60;;;3.47;;
23175;SDS011;19910;42.652;23.332;2022-10-16T03:39:52;8.57;;;3.55;;
23175;SDS011;19910;42.652;23.332;2022-10-16T03:42:19;5.35;;;2.80;;
23175;SDS011;19910;42.652;23.332;2022-10-16T03:44:46;5.72;;;3.22;;
23175;SDS011;19910;42.652;23.332;2022-10-16T03:47:13;10.85;;;3.72;;
23175;SDS011;19910;42.652;23.332;2022-10-16T03:49:40;4.65;;;3.17;;
23175;SDS011;19910;42.652;23.332;2022-10-16T03:52:06;5.70;;;3.10;;
23175;SDS011;19910;42.652;23.332;2022-10-16T03:54:33;4.55;;;2.95;;
23175;SDS011;19910;42.652;23.332;2022-10-16T03:57:01;6.43;;;3.45;;
23175;SDS011;19910;42.652;23.332;2022-10-16T03:59:28;12.10;;;7.55;;
23175;SDS011;19910;42.652;23.332;2022-10-16T04:01:54;11.65;;;7.45;;
23175;SDS011;19910;42.652;23.332;2022-10-16T04:04:21;6.38;;;3.63;;
23175;SDS011;19910;42.652;23.332;2022-10-16T04:06:48;9.20;;;3.78;;
23175;SDS011;19910;42.652;23.332;2022-10-16T04:09:14;7.80;;;3.42;;
23175;SDS011;19910;42.652;23.332;2022-10-16T04:11:41;5.43;;;3.58;;
23175;SDS011;19910;42.652;23.332;2022-10-16T04:14:09;5.25;;;3.25;;
23175;SDS011;19910;42.652;23.332;2022-10-16T04:16:36;6.32;;;3.35;;
23175;SDS011;19910;42.652;23.332;2022-10-16T04:19:03;5.72;;;3.25;;
23175;SDS011;19910;42.652;23.332;2022-10-16T04:21:29;8.23;;;4.15;;
23175;SDS011;19910;42.652;23.332;2022-10-16T04:23:56;6.90;;;3.40;;
23175;SDS011;19910;42.652;23.332;2022-10-16T04:26:23;6.90;;;3.15;;
23175;SDS011;19910;42.652;23.332;2022-10-16T04:28:49;4.68;;;3.42;;
23175;SDS011;19910;42.652;23.332;2022-10-16T04:31:17;5.82;;;3.47;;
23175;SDS011;19910;42.652;23.332;2022-10-16T04:33:44;6.43;;;3.55;;
23175;SDS011;19910;42.652;23.332;2022-10-16T04:36:11;6.95;;;3.10;;
23175;SDS011;19910;42.652;23.332;2022-10-16T04:38:38;8.48;;;4.07;;
23175;SDS011;19910;42.652;23.332;2022-10-16T04:41:05;7.78;;;3.97;;
23175;SDS011;19910;42.652;23.332;2022-10-16T04:43:33;6.43;;;3.53;;
23175;SDS011;19910;42.652;23.332;2022-10-16T04:45:59;9.75;;;6.57;;
23175;SDS011;19910;42.652;23.332;2022-10-16T04:48:28;13.45;;;7.22;;
23175;SDS011;19910;42.652;23.332;2022-10-16T04:50:54;11.70;;;7.78;;
23175;SDS011;19910;42.652;23.332;2022-10-16T04:53:21;10.45;;;7.13;;
23175;SDS011;19910;42.652;23.332;2022-10-16T04:55:48;11.38;;;6.93;;
23175;SDS011;19910;42.652;23.332;2022-10-16T04:58:15;10.43;;;7.32;;
23175;SDS011;19910;42.652;23.332;2022-10-16T05:00:42;5.40;;;3.42;;
23175;SDS011;19910;42.652;23.332;2022-10-16T05:03:09;6.90;;;4.28;;
23175;SDS011;19910;42.652;23.332;2022-10-16T05:05:41;8.00;;;3.42;;
23175;SDS011;19910;42.652;23.332;2022-10-16T05:08:10;6.80;;;3.55;;
23175;SDS011;19910;42.652;23.332;2022-10-16T05:10:40;7.88;;;5.00;;
23175;SDS011;19910;42.652;23.332;2022-10-16T05:13:07;15.27;;;3.97;;
23175;SDS011;19910;42.652;23.332;2022-10-16T05:15:34;5.57;;;3.47;;
23175;SDS011;19910;42.652;23.332;2022-10-16T05:18:01;7.18;;;4.40;;
23175;SDS011;19910;42.652;23.332;2022-10-16T05:20:28;4.93;;;3.15;;
23175;SDS011;19910;42.652;23.332;2022-10-16T05:22:56;8.48;;;4.50;;
23175;SDS011;19910;42.652;23.332;2022-10-16T05:25:23;8.10;;;4.45;;
23175;SDS011;19910;42.652;23.332;2022-10-16T05:27:50;6.93;;;4.22;;
23175;SDS011;19910;42.652;23.332;2022-10-16T05:30:17;9.02;;;4.45;;
23175;SDS011;19910;42.652;23.332;2022-10-16T05:32:46;9.77;;;4.43;;
23175;SDS011;19910;42.652;23.332;2022-10-16T05:35:13;6.40;;;3.75;;
23175;SDS011;19910;42.652;23.332;2022-10-16T05:37:40;6.85;;;4.22;;
23175;SDS011;19910;42.652;23.332;2022-10-16T05:40:09;16.50;;;4.13;;
23175;SDS011;19910;42.652;23.332;2022-10-16T05:42:36;6.93;;;3.65;;
23175;SDS011;19910;42.652;23.332;2022-10-16T05:45:04;7.32;;;3.83;;
23175;SDS011;19910;42.652;23.332;2022-10-16T05:47:32;6.25;;;3.92;;
23175;SDS011;19910;42.652;23.332;2022-10-16T05:49:58;6.15;;;3.35;;
23175;SDS011;19910;42.652;23.332;2022-10-16T05:52:26;7.80;;;3.15;;
23175;SDS011;19910;42.652;23.332;2022-10-16T05:54:53;5.38;;;3.30;;
23175;SDS011;19910;42.652;23.332;2022-10-16T05:57:21;3.85;;;2.80;;
23175;SDS011;19910;42.652;23.332;2022-10-16T05:59:48;13.90;;;3.40;;
23175;SDS011;19910;42.652;23.332;2022-10-16T06:02:14;5.70;;;3.20;;
23175;SDS011;19910;42.652;23.332;2022-10-16T06:04:41;5.03;;;3.25;;
23175;SDS011;19910;42.652;23.332;2022-10-16T06:07:08;3.63;;;3.17;;
23175;SDS011;19910;42.652;23.332;2022-10-16T06:09:34;6.00;;;3.08;;
23175;SDS011;19910;42.652;23.332;2022-10-16T06:12:01;7.25;;;4.85;;
23175;SDS011;19910;42.652;23.332;2022-10-16T06:14:29;3.83;;;2.90;;
23175;SDS011;19910;42.652;23.332;2022-10-16T06:16:56;11.57;;;3.55;;
23175;SDS011;19910;42.652;23.332;2022-10-16T06:19:23;9.00;;;3.28;;
23175;SDS011;19910;42.652;23.332;2022-10-16T06:21:49;3.33;;;2.90;;
23175;SDS011;19910;42.652;23.332;2022-10-16T06:24:16;6.10;;;4.40;;
23175;SDS011;19910;42.652;23.332;2022-10-16T06:26:43;7.05;;;3.83;;
23175;SDS011;19910;42.652;23.332;2022-10-16T06:29:10;4.25;;;2.78;;
23175;SDS011;19910;42.652;23.332;2022-10-16T06:31:38;4.43;;;2.70;;
23175;SDS011;19910;42.652;23.332;2022-10-16T06:34:04;5.55;;;3.63;;
23175;SDS011;19910;42.652;23.332;2022-10-16T06:36:34;6.93;;;3.63;;
23175;SDS011;19910;42.652;23.332;2022-10-16T06:39:01;5.25;;;3.22;;
23175;SDS011;19910;42.652;23.332;2022-10-16T06:41:28;9.57;;;3.30;;
23175;SDS011;19910;42.652;23.332;2022-10-16T06:43:55;6.15;;;3.63;;
23175;SDS011;19910;42.652;23.332;2022-10-16T06:46:23;7.05;;;3.10;;
23175;SDS011;19910;42.652;23.332;2022-10-16T06:48:53;8.40;;;4.80;;
23175;SDS011;19910;42.652;23.332;2022-10-16T06:51:20;8.30;;;5.57;;
23175;SDS011;19910;42.652;23.332;2022-10-16T06:53:48;7.70;;;3.40;;
23175;SDS011;19910;42.652;23.332;2022-10-16T06:56:17;5.97;;;3.25;;
23175;SDS011;19910;42.652;23.332;2022-10-16T06:58:45;6.50;;;3.60;;
23175;SDS011;19910;42.652;23.332;2022-10-16T07:01:12;4.57;;;3.13;;
23175;SDS011;19910;42.652;23.332;2022-10-16T07:03:41;3.05;;;2.15;;
23175;SDS011;19910;42.652;23.332;2022-10-16T07:06:11;5.47;;;3.33;;
23175;SDS011;19910;42.652;23.332;2022-10-16T07:08:40;4.00;;;2.88;;
23175;SDS011;19910;42.652;23.332;2022-10-16T07:11:09;3.92;;;2.78;;
23175;SDS011;19910;42.652;23.332;2022-10-16T07:13:38;4.60;;;2.85;;
23175;SDS011;19910;42.652;23.332;2022-10-16T07:16:08;3.00;;;2.40;;
23175;SDS011;19910;42.652;23.332;2022-10-16T07:18:37;5.22;;;2.90;;
23175;SDS011;19910;42.652;23.332;2022-10-16T07:21:05;4.57;;;2.65;;
23175;SDS011;19910;42.652;23.332;2022-10-16T07:23:34;3.63;;;2.42;;
23175;SDS011;19910;42.652;23.332;2022-10-16T07:26:01;7.22;;;4.63;;
23175;SDS011;19910;42.652;23.332;2022-10-16T07:28:28;3.78;;;3.15;;
23175;SDS011;19910;42.652;23.332;2022-10-16T07:30:59;4.00;;;3.55;;
23175;SDS011;19910;42.652;23.332;2022-10-16T07:33:26;5.13;;;3.08;;
23175;SDS011;19910;42.652;23.332;2022-10-16T07:35:53;5.95;;;3.40;;
23175;SDS011;19910;42.652;23.332;2022-10-16T07:38:21;6.72;;;4.05;;
23175;SDS011;19910;42.652;23.332;2022-10-16T07:40:54;5.38;;;3.55;;
23175;SDS011;19910;42.652;23.332;2022-10-16T07:43:22;9.98;;;3.90;;
23175;SDS011;19910;42.652;23.332;2022-10-16T07:45:49;7.53;;;4.20;;
23175;SDS011;19910;42.652;23.332;2022-10-16T07:48:16;6.38;;;3.95;;
23175;SDS011;19910;42.652;23.332;2022-10-16T07:50:44;7.00;;;4.00;;
23175;SDS011;19910;42.652;23.332;2022-10-16T07:53:11;6.57;;;4.20;;
23175;SDS011;19910;42.652;23.332;2022-10-16T07:55:38;7.47;;;4.60;;
23175;SDS011;19910;42.652;23.332;2022-10-16T07:58:07;8.60;;;5.07;;
23175;SDS011;19910;42.652;23.332;2022-10-16T08:00:33;7.20;;;4.43;;
23175;SDS011;19910;42.652;23.332;2022-10-16T08:03:02;9.05;;;4.15;;
23175;SDS011;19910;42.652;23.332;2022-10-16T08:05:29;14.70;;;5.00;;
23175;SDS011;19910;42.652;23.332;2022-10-16T08:07:58;9.52;;;4.15;;
23175;SDS011;19910;42.652;23.332;2022-10-16T08:10:25;6.60;;;3.95;;
23175;SDS011;19910;42.652;23.332;2022-10-16T08:12:53;8.82;;;4.47;;
23175;SDS011;19910;42.652;23.332;2022-10-16T08:15:22;9.02;;;4.70;;
23175;SDS011;19910;42.652;23.332;2022-10-16T08:17:55;11.35;;;5.45;;
23175;SDS011;19910;42.652;23.332;2022-10-16T08:20:23;8.02;;;4.32;;
23175;SDS011;19910;42.652;23.332;2022-10-16T08:22:49;10.35;;;5.38;;
23175;SDS011;19910;42.652;23.332;2022-10-16T08:25:16;9.73;;;4.20;;
23175;SDS011;19910;42.652;23.332;2022-10-16T08:27:43;7.00;;;4.45;;
23175;SDS011;19910;42.652;23.332;2022-10-16T08:30:10;6.82;;;3.50;;
23175;SDS011;19910;42.652;23.332;2022-10-16T08:32:38;6.32;;;4.00;;
23175;SDS011;19910;42.652;23.332;2022-10-16T08:35:06;5.32;;;3.33;;
23175;SDS011;19910;42.652;23.332;2022-10-16T08:37:34;6.22;;;3.78;;
23175;SDS011;19910;42.652;23.332;2022-10-16T08:40:01;5.75;;;3.47;;
23175;SDS011;19910;42.652;23.332;2022-10-16T08:42:30;5.53;;;3.20;;
23175;SDS011;19910;42.652;23.332;2022-10-16T08:45:13;7.22;;;3.40;;
23175;SDS011;19910;42.652;23.332;2022-10-16T08:47:52;8.07;;;4.75;;
23175;SDS011;19910;42.652;23.332;2022-10-16T08:50:29;3.88;;;2.40;;
23175;SDS011;19910;42.652;23.332;2022-10-16T08:52:57;7.93;;;4.55;;
23175;SDS011;19910;42.652;23.332;2022-10-16T08:55:29;4.60;;;2.72;;
23175;SDS011;19910;42.652;23.332;2022-10-16T08:57:59;3.15;;;2.03;;
23175;SDS011;19910;42.652;23.332;2022-10-16T09:00:26;4.97;;;2.70;;
23175;SDS011;19910;42.652;23.332;2022-10-16T09:02:58;4.18;;;1.88;;
23175;SDS011;19910;42.652;23.332;2022-10-16T09:05:37;6.35;;;2.17;;
23175;SDS011;19910;42.652;23.332;2022-10-16T09:08:19;6.05;;;2.17;;
23175;SDS011;19910;42.652;23.332;2022-10-16T09:10:54;4.85;;;2.58;;
23175;SDS011;19910;42.652;23.332;2022-10-16T09:13:26;2.67;;;1.75;;
23175;SDS011;19910;42.652;23.332;2022-10-16T09:16:10;4.75;;;3.20;;
23175;SDS011;19910;42.652;23.332;2022-10-16T09:18:48;2.70;;;1.85;;
23175;SDS011;19910;42.652;23.332;2022-10-16T09:21:21;3.40;;;2.03;;
23175;SDS011;19910;42.652;23.332;2022-10-16T09:23:50;3.80;;;2.22;;
23175;SDS011;19910;42.652;23.332;2022-10-16T09:26:17;1.85;;;1.48;;
23175;SDS011;19910;42.652;23.332;2022-10-16T09:28:47;3.72;;;2.05;;
23175;SDS011;19910;42.652;23.332;2022-10-16T09:31:15;3.15;;;1.95;;
23175;SDS011;19910;42.652;23.332;2022-10-16T09:33:46;2.72;;;1.80;;
23175;SDS011;19910;42.652;23.332;2022-10-16T09:36:16;3.92;;;2.17;;
23175;SDS011;19910;42.652;23.332;2022-10-16T09:38:44;4.43;;;3.15;;
23175;SDS011;19910;42.652;23.332;2022-10-16T09:41:15;3.90;;;3.03;;
23175;SDS011;19910;42.652;23.332;2022-10-16T09:43:46;6.72;;;2.20;;
23175;SDS011;19910;42.652;23.332;2022-10-16T09:46:21;4.47;;;2.50;;
23175;SDS011;19910;42.652;23.332;2022-10-16T09:48:54;7.20;;;2.30;;
23175;SDS011;19910;42.652;23.332;2022-10-16T09:51:23;4.38;;;2.17;;
23175;SDS011;19910;42.652;23.332;2022-10-16T09:53:54;4.13;;;2.20;;
23175;SDS011;19910;42.652;23.332;2022-10-16T09:56:24;7.75;;;2.97;;
23175;SDS011;19910;42.652;23.332;2022-10-16T09:58:53;5.15;;;3.08;;
23175;SDS011;19910;42.652;23.332;2022-10-16T10:01:21;4.28;;;2.75;;
23175;SDS011;19910;42.652;23.332;2022-10-16T10:03:50;4.55;;;2.40;;
23175;SDS011;19910;42.652;23.332;2022-10-16T10:06:26;3.90;;;2.58;;
23175;SDS011;19910;42.652;23.332;2022-10-16T10:08:55;4.18;;;3.10;;
23175;SDS011;19910;42.652;23.332;2022-10-16T10:11:42;4.15;;;2.63;;
23175;SDS011;19910;42.652;23.332;2022-10-16T10:14:14;2.47;;;1.80;;
23175;SDS011;19910;42.652;23.332;2022-10-16T10:16:50;5.28;;;2.90;;
23175;SDS011;19910;42.652;23.332;2022-10-16T10:19:18;5.68;;;3.05;;
23175;SDS011;19910;42.652;23.332;2022-10-16T10:21:47;3.20;;;2.78;;
23175;SDS011;19910;42.652;23.332;2022-10-16T10:24:17;4.40;;;2.58;;
23175;SDS011;19910;42.652;23.332;2022-10-16T10:26:49;4.10;;;2.47;;
23175;SDS011;19910;42.652;23.332;2022-10-16T10:29:24;3.83;;;2.50;;
23175;SDS011;19910;42.652;23.332;2022-10-16T10:32:00;3.85;;;2.70;;
23175;SDS011;19910;42.652;23.332;2022-10-16T10:34:41;6.60;;;3.30;;
23175;SDS011;19910;42.652;23.332;2022-10-16T10:37:25;2.88;;;2.17;;
23175;SDS011;19910;42.652;23.332;2022-10-16T10:40:07;3.47;;;2.60;;
23175;SDS011;19910;42.652;23.332;2022-10-16T10:42:43;4.53;;;3.20;;
23175;SDS011;19910;42.652;23.332;2022-10-16T10:45:18;4.75;;;2.63;;
23175;SDS011;19910;42.652;23.332;2022-10-16T10:47:58;5.28;;;2.88;;
23175;SDS011;19910;42.652;23.332;2022-10-16T10:50:39;3.50;;;2.42;;
23175;SDS011;19910;42.652;23.332;2022-10-16T10:53:11;3.63;;;2.33;;
23175;SDS011;19910;42.652;23.332;2022-10-16T10:55:49;3.95;;;2.55;;
23175;SDS011;19910;42.652;23.332;2022-10-16T10:58:24;3.95;;;2.63;;
23175;SDS011;19910;42.652;23.332;2022-10-16T11:01:07;4.05;;;2.72;;
23175;SDS011;19910;42.652;23.332;2022-10-16T11:03:42;4.10;;;2.55;;
23175;SDS011;19910;42.652;23.332;2022-10-16T11:06:24;2.70;;;2.40;;
23175;SDS011;19910;42.652;23.332;2022-10-16T11:08:58;4.47;;;2.40;;
23175;SDS011;19910;42.652;23.332;2022-10-16T11:11:53;3.47;;;2.40;;
23175;SDS011;19910;42.652;23.332;2022-10-16T11:14:28;2.63;;;1.90;;
23175;SDS011;19910;42.652;23.332;2022-10-16T11:17:07;2.72;;;2.00;;
23175;SDS011;19910;42.652;23.332;2022-10-16T11:19:39;2.30;;;2.00;;
23175;SDS011;19910;42.652;23.332;2022-10-16T11:22:12;2.83;;;2.28;;
23175;SDS011;19910;42.652;23.332;2022-10-16T11:24:45;2.47;;;1.85;;
23175;SDS011;19910;42.652;23.332;2022-10-16T11:27:19;2.47;;;1.98;;
23175;SDS011;19910;42.652;23.332;2022-10-16T11:29:53;3.00;;;1.52;;
23175;SDS011;19910;42.652;23.332;2022-10-16T11:32:26;2.53;;;1.67;;
23175;SDS011;19910;42.652;23.332;2022-10-16T11:35:00;1.63;;;1.50;;
23175;SDS011;19910;42.652;23.332;2022-10-16T11:37:31;4.43;;;1.75;;
23175;SDS011;19910;42.652;23.332;2022-10-16T11:40:05;2.60;;;1.80;;
23175;SDS011;19910;42.652;23.332;2022-10-16T11:42:46;4.70;;;2.00;;
23175;SDS011;19910;42.652;23.332;2022-10-16T11:45:22;2.35;;;1.88;;
23175;SDS011;19910;42.652;23.332;2022-10-16T11:47:57;2.90;;;1.90;;
23175;SDS011;19910;42.652;23.332;2022-10-16T11:50:29;2.10;;;1.48;;
23175;SDS011;19910;42.652;23.332;2022-10-16T11:53:01;2.67;;;1.80;;
23175;SDS011;19910;42.652;23.332;2022-10-16T11:55:38;3.72;;;1.90;;
23175;SDS011;19910;42.652;23.332;2022-10-16T11:58:07;2.33;;;1.77;;
23175;SDS011;19910;42.652;23.332;2022-10-16T12:00:43;3.25;;;1.83;;
23175;SDS011;19910;42.652;23.332;2022-10-16T12:03:18;5.45;;;2.17;;
23175;SDS011;19910;42.652;23.332;2022-10-16T12:06:13;2.70;;;1.92;;
23175;SDS011;19910;42.652;23.332;2022-10-16T12:08:48;2.10;;;1.67;;
23175;SDS011;19910;42.652;23.332;2022-10-16T12:11:24;2.63;;;1.92;;
23175;SDS011;19910;42.652;23.332;2022-10-16T12:14:07;3.17;;;1.75;;
23175;SDS011;19910;42.652;23.332;2022-10-16T12:16:51;3.00;;;2.30;;
23175;SDS011;19910;42.652;23.332;2022-10-16T12:19:23;3.40;;;1.90;;
23175;SDS011;19910;42.652;23.332;2022-10-16T12:21:52;2.53;;;1.95;;
23175;SDS011;19910;42.652;23.332;2022-10-16T12:24:27;2.20;;;1.60;;
23175;SDS011;19910;42.652;23.332;2022-10-16T12:27:00;2.45;;;1.90;;
23175;SDS011;19910;42.652;23.332;2022-10-16T12:29:34;1.60;;;1.40;;
23175;SDS011;19910;42.652;23.332;2022-10-16T12:32:04;2.35;;;1.60;;
23175;SDS011;19910;42.652;23.332;2022-10-16T12:34:45;2.22;;;1.40;;
23175;SDS011;19910;42.652;23.332;2022-10-16T12:37:14;1.77;;;1.52;;
23175;SDS011;19910;42.652;23.332;2022-10-16T12:39:47;1.95;;;1.50;;
23175;SDS011;19910;42.652;23.332;2022-10-16T12:42:21;3.35;;;2.13;;
23175;SDS011;19910;42.652;23.332;2022-10-16T12:44:50;3.30;;;2.10;;
23175;SDS011;19910;42.652;23.332;2022-10-16T12:47:19;2.28;;;1.98;;
23175;SDS011;19910;42.652;23.332;2022-10-16T12:49:48;2.38;;;1.80;;
23175;SDS011;19910;42.652;23.332;2022-10-16T12:52:23;2.85;;;1.92;;
23175;SDS011;19910;42.652;23.332;2022-10-16T12:54:55;3.60;;;2.22;;
23175;SDS011;19910;42.652;23.332;2022-10-16T12:57:29;2.67;;;1.80;;
23175;SDS011;19910;42.652;23.332;2022-10-16T13:00:08;3.53;;;2.00;;
23175;SDS011;19910;42.652;23.332;2022-10-16T13:03:04;5.07;;;2.28;;
23175;SDS011;19910;42.652;23.332;2022-10-16T13:05:56;3.03;;;1.98;;
23175;SDS011;19910;42.652;23.332;2022-10-16T13:08:36;2.45;;;1.75;;
23175;SDS011;19910;42.652;23.332;2022-10-16T13:11:12;2.03;;;1.70;;
23175;SDS011;19910;42.652;23.332;2022-10-16T13:13:54;2.17;;;1.85;;
23175;SDS011;19910;42.652;23.332;2022-10-16T13:16:36;2.67;;;1.63;;
23175;SDS011;19910;42.652;23.332;2022-10-16T13:19:17;1.95;;;1.55;;
23175;SDS011;19910;42.652;23.332;2022-10-16T13:21:51;2.78;;;2.10;;
23175;SDS011;19910;42.652;23.332;2022-10-16T13:24:31;3.97;;;2.00;;
23175;SDS011;19910;42.652;23.332;2022-10-16T13:27:14;2.58;;;2.03;;
23175;SDS011;19910;42.652;23.332;2022-10-16T13:29:49;3.20;;;2.03;;
23175;SDS011;19910;42.652;23.332;2022-10-16T13:32:20;3.13;;;2.17;;
23175;SDS011;19910;42.652;23.332;2022-10-16T13:34:48;2.97;;;2.10;;
23175;SDS011;19910;42.652;23.332;2022-10-16T13:37:16;2.65;;;1.92;;
23175;SDS011;19910;42.652;23.332;2022-10-16T13:39:44;2.35;;;1.77;;
23175;SDS011;19910;42.652;23.332;2022-10-16T13:42:13;3.80;;;2.13;;
23175;SDS011;19910;42.652;23.332;2022-10-16T13:44:51;3.90;;;2.38;;
23175;SDS011;19910;42.652;23.332;2022-10-16T13:47:19;4.95;;;2.00;;
23175;SDS011;19910;42.652;23.332;2022-10-16T13:49:58;2.92;;;2.08;;
23175;SDS011;19910;42.652;23.332;2022-10-16T13:52:25;2.53;;;1.95;;
23175;SDS011;19910;42.652;23.332;2022-10-16T13:54:52;3.05;;;1.85;;
23175;SDS011;19910;42.652;23.332;2022-10-16T13:57:21;2.28;;;2.03;;
23175;SDS011;19910;42.652;23.332;2022-10-16T13:59:50;2.10;;;1.90;;
23175;SDS011;19910;42.652;23.332;2022-10-16T14:02:19;3.45;;;1.75;;
23175;SDS011;19910;42.652;23.332;2022-10-16T14:04:51;3.15;;;1.95;;
23175;SDS011;19910;42.652;23.332;2022-10-16T14:07:20;2.55;;;1.90;;
23175;SDS011;19910;42.652;23.332;2022-10-16T14:09:50;3.45;;;2.22;;
23175;SDS011;19910;42.652;23.332;2022-10-16T14:12:18;3.10;;;2.05;;
23175;SDS011;19910;42.652;23.332;2022-10-16T14:14:46;2.97;;;2.08;;
23175;SDS011;19910;42.652;23.332;2022-10-16T14:17:17;4.40;;;2.28;;
23175;SDS011;19910;42.652;23.332;2022-10-16T14:19:46;3.22;;;2.08;;
23175;SDS011;19910;42.652;23.332;2022-10-16T14:22:30;2.17;;;1.90;;
23175;SDS011;19910;42.652;23.332;2022-10-16T14:24:59;2.58;;;2.17;;
23175;SDS011;19910;42.652;23.332;2022-10-16T14:27:31;3.83;;;2.13;;
23175;SDS011;19910;42.652;23.332;2022-10-16T14:30:09;2.90;;;2.20;;
23175;SDS011;19910;42.652;23.332;2022-10-16T14:32:42;3.70;;;2.05;;
23175;SDS011;19910;42.652;23.332;2022-10-16T14:35:27;2.30;;;1.83;;
23175;SDS011;19910;42.652;23.332;2022-10-16T14:37:56;2.63;;;1.80;;
23175;SDS011;19910;42.652;23.332;2022-10-16T14:40:25;5.50;;;2.05;;
23175;SDS011;19910;42.652;23.332;2022-10-16T14:42:53;2.97;;;1.90;;
23175;SDS011;19910;42.652;23.332;2022-10-16T14:45:21;3.15;;;2.40;;
23175;SDS011;19910;42.652;23.332;2022-10-16T14:47:52;3.92;;;2.03;;
23175;SDS011;19910;42.652;23.332;2022-10-16T14:50:21;3.67;;;2.13;;
23175;SDS011;19910;42.652;23.332;2022-10-16T14:52:48;4.40;;;1.70;;